createdAt,value
2023-05-24T00:01:47.990Z,16.20
2023-05-24T00:04:16.783Z,16.20
2023-05-24T00:06:45.463Z,16.20
2023-05-24T00:09:15.521Z,16.20
2023-05-24T00:11:44.155Z,16.10
2023-05-24T00:14:12.828Z,16.10
2023-05-24T00:16:41.599Z,16.10
2023-05-24T00:19:11.534Z,16.00
2023-05-24T00:21:40.265Z,16.00
2023-05-24T00:24:08.896Z,15.90
2023-05-24T00:26:39.288Z,15.90
2023-05-24T00:29:08.181Z,15.90
2023-05-24T00:31:36.798Z,15.80
2023-05-24T00:34:05.433Z,15.80
2023-05-24T00:36:34.412Z,15.80
2023-05-24T00:39:03.134Z,15.80
2023-05-24T00:41:31.755Z,15.90
2023-05-24T00:44:01.791Z,16.00
2023-05-24T00:46:31.866Z,16.00
2023-05-24T00:49:01.787Z,16.00
2023-05-24T00:51:30.896Z,15.90
2023-05-24T00:53:59.631Z,15.90
2023-05-24T00:56:29.213Z,15.90
2023-05-24T00:58:57.948Z,16.00
2023-05-24T01:01:31.293Z,16.00
2023-05-24T01:04:00.834Z,15.90
2023-05-24T01:06:30.903Z,16.00
2023-05-24T01:09:11.938Z,15.90
2023-05-24T01:11:50.778Z,15.90
2023-05-24T01:14:27.779Z,15.90
2023-05-24T01:17:05.515Z,15.90
2023-05-24T01:19:52.743Z,15.80
2023-05-24T01:22:57.837Z,15.80
2023-05-24T01:25:42.018Z,15.80
2023-05-24T01:28:13.782Z,15.80
2023-05-24T01:30:43.226Z,15.80
2023-05-24T01:33:12.189Z,15.70
2023-05-24T01:35:42.825Z,15.70
2023-05-24T01:38:12.313Z,15.60
2023-05-24T01:40:42.650Z,15.60
2023-05-24T01:43:18.496Z,15.60
2023-05-24T01:46:00.560Z,15.50
2023-05-24T01:48:36.520Z,15.50
2023-05-24T01:51:11.903Z,15.50
2023-05-24T01:53:46.726Z,15.50
2023-05-24T01:56:17.302Z,15.50
2023-05-24T01:58:49.075Z,15.60
2023-05-24T02:01:18.449Z,15.50
2023-05-24T02:03:48.435Z,15.50
2023-05-24T02:06:17.047Z,15.50
2023-05-24T02:08:47.003Z,15.40
2023-05-24T02:11:15.607Z,15.40
2023-05-24T02:13:44.229Z,15.40
2023-05-24T02:16:14.316Z,15.40
2023-05-24T02:18:44.720Z,15.50
2023-05-24T02:21:13.418Z,15.40
2023-05-24T02:23:42.081Z,15.30
2023-05-24T02:26:12.221Z,15.20
2023-05-24T02:28:40.877Z,15.10
2023-05-24T02:31:09.507Z,15.00
2023-05-24T02:33:40.129Z,14.90
2023-05-24T02:36:08.987Z,14.90
2023-05-24T02:38:38.562Z,14.90
2023-05-24T02:41:07.381Z,14.90
2023-05-24T02:43:36.027Z,14.90
2023-05-24T02:46:05.169Z,14.90
2023-05-24T02:48:33.904Z,14.80
2023-05-24T02:51:04.280Z,14.80
2023-05-24T02:53:33.234Z,14.80
2023-05-24T02:56:02.133Z,14.80
2023-05-24T02:58:30.741Z,14.70
2023-05-24T03:00:59.364Z,14.70
2023-05-24T03:03:28.063Z,14.70
2023-05-24T03:05:56.761Z,14.70
2023-05-24T03:08:26.847Z,14.80
2023-05-24T03:10:55.458Z,14.80
2023-05-24T03:13:24.263Z,14.80
2023-05-24T03:15:52.898Z,14.90
2023-05-24T03:18:21.739Z,15.00
2023-05-24T03:20:50.452Z,15.10
2023-05-24T03:23:19.107Z,15.20
2023-05-24T03:25:49.208Z,15.40
2023-05-24T03:28:17.878Z,15.30
2023-05-24T03:30:46.468Z,15.90
2023-05-24T03:33:15.146Z,15.70
2023-05-24T03:35:43.877Z,15.80
2023-05-24T03:38:12.494Z,15.90
2023-05-24T03:40:41.661Z,15.90
2023-05-24T03:43:12.456Z,16.00
2023-05-24T03:45:41.142Z,16.10
2023-05-24T03:48:09.815Z,16.10
2023-05-24T03:50:38.457Z,16.20
2023-05-24T03:53:07.642Z,16.30
2023-05-24T03:55:36.305Z,16.40
2023-05-24T03:58:05.069Z,16.40
2023-05-24T04:00:35.061Z,16.50
2023-05-24T04:03:06.992Z,16.60
2023-05-24T04:05:35.817Z,16.60
2023-05-24T04:08:04.494Z,16.70
2023-05-24T04:10:33.292Z,16.70
2023-05-24T04:13:02.420Z,16.80
2023-05-24T04:15:31.479Z,16.80
2023-05-24T04:18:03.492Z,16.80
2023-05-24T04:20:32.644Z,16.80
2023-05-24T04:23:01.446Z,16.80
2023-05-24T04:25:30.393Z,16.90
2023-05-24T04:27:59.012Z,16.90
2023-05-24T04:30:30.673Z,16.90
2023-05-24T04:33:01.162Z,16.90
2023-05-24T04:35:30.453Z,17.00
2023-05-24T04:38:00.305Z,17.00
2023-05-24T04:40:28.891Z,17.10
2023-05-24T04:42:57.644Z,17.10
2023-05-24T04:45:26.517Z,17.10
2023-05-24T04:47:55.283Z,17.20
2023-05-24T04:50:26.000Z,17.30
2023-05-24T04:52:54.819Z,17.20
2023-05-24T04:55:23.548Z,17.30
2023-05-24T04:57:52.159Z,17.30
2023-05-24T05:00:21.671Z,17.40
2023-05-24T05:02:50.762Z,17.40
2023-05-24T05:05:20.380Z,17.50
2023-05-24T05:07:50.618Z,17.70
2023-05-24T05:10:20.634Z,17.80
2023-05-24T05:12:50.586Z,18.00
2023-05-24T05:18:07.337Z,18.30
2023-05-24T05:20:36.254Z,18.30
2023-05-24T05:23:06.513Z,18.40
2023-05-24T05:25:36.335Z,18.50
2023-05-24T05:28:05.027Z,18.50
2023-05-24T05:30:33.747Z,18.50
2023-05-24T05:33:02.404Z,18.60
2023-05-24T05:35:31.141Z,18.60
2023-05-24T05:38:00.035Z,18.60
2023-05-24T05:40:30.136Z,18.60
2023-05-24T05:42:58.774Z,18.70
2023-05-24T05:45:27.471Z,18.70
2023-05-24T05:47:56.194Z,18.80
2023-05-24T05:50:24.886Z,18.90
2023-05-24T05:52:53.600Z,19.00
2023-05-24T05:55:22.372Z,19.20
2023-05-24T05:57:52.444Z,19.30
2023-05-24T06:00:23.696Z,19.40
2023-05-24T06:02:52.496Z,19.50
2023-05-24T06:05:21.718Z,19.40
2023-05-24T06:07:50.362Z,19.50
2023-05-24T06:10:19.406Z,19.50
2023-05-24T06:12:48.140Z,19.50
2023-05-24T06:15:18.600Z,19.60
2023-05-24T06:17:48.294Z,19.60
2023-05-24T06:20:17.372Z,19.60
2023-05-24T06:22:46.529Z,19.70
2023-05-24T06:25:19.335Z,19.80
2023-05-24T06:27:48.134Z,19.90
2023-05-24T06:30:18.526Z,19.90
2023-05-24T06:32:47.206Z,20.00
2023-05-24T06:35:16.130Z,20.10
2023-05-24T06:37:44.815Z,20.10
2023-05-24T06:40:14.461Z,20.20
2023-05-24T06:42:43.053Z,20.40
2023-05-24T06:45:12.477Z,20.50
2023-05-24T06:47:43.966Z,20.70
2023-05-24T06:50:12.935Z,20.80
2023-05-24T06:52:41.657Z,21.00
2023-05-24T06:55:11.001Z,21.20
2023-05-24T06:57:39.773Z,21.50
2023-05-24T07:00:10.722Z,21.70
2023-05-24T07:02:39.755Z,21.80
2023-05-24T07:05:12.605Z,22.10
2023-05-24T07:07:41.622Z,22.20
2023-05-24T07:10:11.823Z,22.40
2023-05-24T07:12:40.527Z,22.50
2023-05-24T07:15:10.401Z,22.60
2023-05-24T07:17:39.230Z,22.50
2023-05-24T07:20:11.894Z,22.60
2023-05-24T07:22:40.688Z,22.60
2023-05-24T07:25:10.027Z,22.60
2023-05-24T07:27:38.743Z,22.50
2023-05-24T07:30:19.601Z,22.40
2023-05-24T07:32:53.354Z,22.40
2023-05-24T07:35:24.234Z,22.40
2023-05-24T07:37:53.040Z,22.40
2023-05-24T07:40:21.720Z,22.40
2023-05-24T07:42:52.545Z,22.30
2023-05-24T07:45:21.347Z,22.30
2023-05-24T07:47:50.353Z,22.30
2023-05-24T07:50:20.446Z,22.40
2023-05-24T07:52:52.962Z,22.60
2023-05-24T07:55:21.983Z,22.70
2023-05-24T07:57:51.278Z,22.70
2023-05-24T08:00:22.690Z,22.70
2023-05-24T08:02:52.607Z,22.70
2023-05-24T08:05:21.418Z,22.70
2023-05-24T08:07:51.868Z,22.60
2023-05-24T08:10:20.787Z,22.60
2023-05-24T08:12:51.726Z,22.60
2023-05-24T08:15:23.067Z,22.60
2023-05-24T08:17:56.037Z,22.60
2023-05-24T08:20:25.210Z,22.70
2023-05-24T08:23:00.154Z,23.00
2023-05-24T08:25:30.550Z,23.30
2023-05-24T08:27:59.165Z,23.50
2023-05-24T08:30:28.044Z,23.70
2023-05-24T08:32:58.533Z,23.80
2023-05-24T08:35:27.367Z,23.80
2023-05-24T08:37:57.464Z,23.90
2023-05-24T08:40:26.843Z,24.00
2023-05-24T08:42:57.413Z,24.00
2023-05-24T08:45:30.987Z,24.10
2023-05-24T08:48:01.277Z,24.10
2023-05-24T08:50:31.687Z,24.20
2023-05-24T08:53:03.309Z,24.50
2023-05-24T08:55:33.336Z,24.90
2023-05-24T08:58:03.201Z,25.30
2023-05-24T09:00:31.983Z,25.70
2023-05-24T09:03:01.765Z,26.20
2023-05-24T09:05:33.545Z,26.60
2023-05-24T09:08:04.795Z,26.70
2023-05-24T09:10:49.499Z,26.90
2023-05-24T09:13:25.261Z,27.00
2023-05-24T09:15:54.597Z,26.90
2023-05-24T09:18:23.708Z,27.00
2023-05-24T09:20:54.175Z,26.80
2023-05-24T09:23:29.577Z,26.70
2023-05-24T09:25:58.894Z,26.60
2023-05-24T09:28:27.519Z,26.40
2023-05-24T09:31:06.358Z,26.40
2023-05-24T09:33:36.911Z,26.40
2023-05-24T09:36:07.898Z,26.40
2023-05-24T09:38:38.230Z,26.30
2023-05-24T09:41:08.869Z,26.40
2023-05-24T09:43:50.217Z,26.40
2023-05-24T09:46:23.338Z,26.40
2023-05-24T09:48:59.289Z,26.60
2023-05-24T09:51:28.829Z,26.70
2023-05-24T09:54:03.359Z,26.90
2023-05-24T09:56:35.958Z,26.90
2023-05-24T09:59:10.251Z,26.80
2023-05-24T10:01:39.415Z,26.70
2023-05-24T10:04:10.159Z,26.40
2023-05-24T10:06:48.581Z,26.10
2023-05-24T10:09:20.007Z,25.90
2023-05-24T10:11:50.249Z,25.70
2023-05-24T10:14:21.535Z,25.60
2023-05-24T10:16:51.339Z,25.70
2023-05-24T10:19:20.216Z,25.90
2023-05-24T10:21:51.019Z,26.20
2023-05-24T10:24:29.162Z,26.60
2023-05-24T10:26:59.030Z,27.10
2023-05-24T10:29:38.142Z,27.40
2023-05-24T10:32:07.806Z,27.70
2023-05-24T10:34:39.410Z,27.80
2023-05-24T10:37:08.570Z,27.80
2023-05-24T10:39:38.919Z,27.80
2023-05-24T10:42:09.905Z,27.60
2023-05-24T10:44:38.778Z,27.40
2023-05-24T10:47:12.450Z,27.30
2023-05-24T10:49:49.350Z,27.20
2023-05-24T10:52:18.115Z,27.10
2023-05-24T10:55:05.662Z,27.00
2023-05-24T10:57:34.641Z,26.90
2023-05-24T11:03:04.439Z,27.20
2023-05-24T11:05:37.441Z,27.40
2023-05-24T11:08:09.807Z,27.60
2023-05-24T11:10:44.025Z,27.90
2023-05-24T11:13:13.029Z,28.10
2023-05-24T11:15:51.397Z,28.30
2023-05-24T11:18:24.964Z,28.50
2023-05-24T11:20:54.135Z,28.60
2023-05-24T11:23:22.890Z,28.80
2023-05-24T11:25:55.653Z,28.90
2023-05-24T11:28:25.136Z,28.90
2023-05-24T11:30:53.890Z,28.90
2023-05-24T11:33:23.903Z,28.60
2023-05-24T11:35:53.544Z,28.40
2023-05-24T11:38:24.885Z,28.20
2023-05-24T11:40:55.453Z,28.00
2023-05-24T11:43:24.399Z,27.80
2023-05-24T11:45:59.563Z,27.60
2023-05-24T11:48:38.630Z,27.50
2023-05-24T11:51:10.521Z,27.60
2023-05-24T11:53:41.923Z,27.60
2023-05-24T11:56:12.348Z,27.50
2023-05-24T11:58:49.904Z,27.50
2023-05-24T12:01:26.518Z,27.50
2023-05-24T12:03:55.388Z,27.40
2023-05-24T12:06:24.663Z,27.30
2023-05-24T12:08:53.265Z,27.10
2023-05-24T12:11:23.727Z,27.00
2023-05-24T12:13:53.753Z,26.90
2023-05-24T12:16:23.325Z,26.90
2023-05-24T12:19:04.100Z,26.80
2023-05-24T12:21:42.978Z,26.80
2023-05-24T12:24:13.005Z,26.80
2023-05-24T12:26:46.857Z,26.50
2023-05-24T12:29:16.190Z,26.40
2023-05-24T12:31:46.559Z,26.30
2023-05-24T12:34:16.879Z,26.20
2023-05-24T12:36:45.927Z,26.20
2023-05-24T12:39:21.908Z,26.30
2023-05-24T12:41:57.043Z,26.30
2023-05-24T12:44:27.433Z,26.40
2023-05-24T12:46:56.930Z,26.40
2023-05-24T12:49:27.161Z,26.40
2023-05-24T12:51:56.781Z,26.40
2023-05-24T12:54:26.444Z,26.30
2023-05-24T12:57:00.438Z,26.20
2023-05-24T12:59:29.731Z,26.20
2023-05-24T13:01:59.153Z,26.30
2023-05-24T13:04:28.393Z,26.30
2023-05-24T13:06:56.994Z,26.30
2023-05-24T13:09:26.370Z,26.40
2023-05-24T13:11:57.255Z,26.50
2023-05-24T13:14:26.085Z,26.80
2023-05-24T13:16:54.840Z,26.90
2023-05-24T13:19:23.560Z,27.20
2023-05-24T13:21:52.776Z,27.40
2023-05-24T13:24:21.520Z,27.60
2023-05-24T13:26:52.235Z,27.60
2023-05-24T13:31:56.601Z,27.60
2023-05-24T13:34:26.117Z,27.60
2023-05-24T13:36:55.475Z,27.50
2023-05-24T13:39:25.087Z,27.40
2023-05-24T13:41:53.970Z,27.20
2023-05-24T13:44:26.995Z,27.10
2023-05-24T13:46:56.979Z,27.00
2023-05-24T13:49:25.662Z,26.80
2023-05-24T13:51:57.999Z,26.60
2023-05-24T13:54:28.052Z,26.40
2023-05-24T13:56:57.822Z,26.30
2023-05-24T13:59:28.503Z,26.30
2023-05-24T14:01:57.730Z,26.20
2023-05-24T14:04:26.379Z,26.10
2023-05-24T14:06:55.012Z,26.00
2023-05-24T14:09:23.922Z,25.90
2023-05-24T14:11:52.653Z,25.70
2023-05-24T14:16:58.763Z,25.50
2023-05-24T14:19:27.697Z,25.50
2023-05-24T14:21:56.710Z,25.40
2023-05-24T14:24:25.332Z,25.40
2023-05-24T14:26:54.021Z,25.30
2023-05-24T14:29:22.756Z,25.10
2023-05-24T14:31:51.780Z,25.00
2023-05-24T14:34:22.366Z,24.80
2023-05-24T14:36:50.973Z,24.80
2023-05-24T14:39:19.729Z,24.80
2023-05-24T14:41:48.374Z,24.80
2023-05-24T14:44:18.292Z,24.90
2023-05-24T14:46:48.142Z,24.90
2023-05-24T14:49:16.941Z,24.80
2023-05-24T14:51:49.920Z,24.80
2023-05-24T14:54:18.668Z,24.70
2023-05-24T14:56:47.418Z,24.60
2023-05-24T14:59:16.328Z,24.50
2023-05-24T15:01:45.032Z,24.30
2023-05-24T15:04:13.849Z,24.10
2023-05-24T15:06:42.566Z,24.00
2023-05-24T15:09:13.628Z,23.80
2023-05-24T15:11:42.381Z,23.80
2023-05-24T15:14:12.205Z,23.80
2023-05-24T15:16:41.471Z,23.80
2023-05-24T15:19:10.717Z,23.90
2023-05-24T15:21:39.493Z,24.10
2023-05-24T15:24:08.917Z,24.20
2023-05-24T15:26:39.207Z,24.20
2023-05-24T15:29:07.956Z,24.20
2023-05-24T15:31:36.824Z,24.20
2023-05-24T15:34:06.347Z,24.20
2023-05-24T15:36:35.064Z,24.30
2023-05-24T15:39:03.796Z,24.30
2023-05-24T15:41:32.499Z,24.20
2023-05-24T15:44:09.024Z,24.10
2023-05-24T15:46:38.122Z,24.10
2023-05-24T15:49:06.917Z,23.90
2023-05-24T15:54:08.949Z,23.60
2023-05-24T15:56:41.582Z,23.40
2023-05-24T15:59:12.188Z,23.20
2023-05-24T16:01:41.949Z,23.10
2023-05-24T16:04:10.834Z,23.00
2023-05-24T16:06:40.093Z,23.00
2023-05-24T16:09:09.108Z,22.80
2023-05-24T16:11:38.099Z,22.80
2023-05-24T16:14:06.882Z,22.70
2023-05-24T16:16:37.242Z,22.60
2023-05-24T16:19:06.117Z,22.50
2023-05-24T16:21:37.213Z,22.40
2023-05-24T16:24:06.785Z,22.40
2023-05-24T16:26:35.985Z,22.30
2023-05-24T16:29:06.907Z,22.30
2023-05-24T16:31:37.419Z,22.30
2023-05-24T16:34:06.231Z,22.20
2023-05-24T16:36:35.461Z,22.20
2023-05-24T16:39:04.432Z,22.10
2023-05-24T16:41:37.958Z,22.10
2023-05-24T16:44:06.828Z,22.10
2023-05-24T16:46:37.768Z,22.00
2023-05-24T16:49:06.943Z,22.00
2023-05-24T16:51:37.221Z,21.90
2023-05-24T16:54:11.698Z,21.90
2023-05-24T16:56:40.937Z,21.80
2023-05-24T16:59:09.799Z,21.80
2023-05-24T17:01:40.358Z,21.70
2023-05-24T17:04:09.729Z,21.60
2023-05-24T17:06:38.702Z,21.50
2023-05-24T17:09:08.056Z,21.50
2023-05-24T17:11:37.316Z,21.40
2023-05-24T17:14:06.076Z,21.40
2023-05-24T17:16:35.390Z,21.30
2023-05-24T17:19:06.343Z,21.30
2023-05-24T17:21:35.535Z,21.20
2023-05-24T17:24:04.281Z,21.00
2023-05-24T17:26:34.953Z,21.00
2023-05-24T17:29:03.832Z,21.00
2023-05-24T17:31:33.074Z,20.90
2023-05-24T17:34:02.100Z,20.80
2023-05-24T17:36:33.901Z,20.70
2023-05-24T17:39:02.553Z,20.60
2023-05-24T17:41:31.704Z,20.40
2023-05-24T17:44:00.804Z,20.30
2023-05-24T17:46:29.798Z,20.20
2023-05-24T17:49:01.229Z,20.10
2023-05-24T17:51:32.103Z,20.00
2023-05-24T17:54:00.789Z,19.90
2023-05-24T17:56:30.601Z,19.80
2023-05-24T17:59:01.182Z,19.70
2023-05-24T18:01:30.360Z,19.70
2023-05-24T18:03:59.154Z,19.70
2023-05-24T18:06:27.849Z,19.70
2023-05-24T18:08:59.596Z,19.60
2023-05-24T18:11:30.204Z,19.50
2023-05-24T18:14:00.763Z,19.50
2023-05-24T18:16:29.813Z,19.40
2023-05-24T18:18:59.053Z,19.40
2023-05-24T18:21:27.757Z,19.40
2023-05-24T18:23:56.461Z,19.30
2023-05-24T18:26:27.573Z,19.30
2023-05-24T18:28:56.657Z,19.20
2023-05-24T18:31:25.662Z,19.20
2023-05-24T18:33:54.615Z,19.10
2023-05-24T18:36:23.645Z,19.10
2023-05-24T18:38:54.153Z,19.10
2023-05-24T18:41:22.991Z,19.10
2023-05-24T18:43:53.498Z,19.00
2023-05-24T18:46:22.522Z,18.90
2023-05-24T18:48:52.971Z,18.80
2023-05-24T18:51:21.814Z,18.80
2023-05-24T18:53:51.967Z,18.60
2023-05-24T18:56:20.834Z,18.60
2023-05-24T18:58:51.395Z,18.50
2023-05-24T19:01:21.824Z,18.40
2023-05-24T19:03:50.610Z,18.30
2023-05-24T19:06:19.465Z,18.20
2023-05-24T19:08:48.308Z,18.00
2023-05-24T19:11:17.164Z,17.90
2023-05-24T19:13:45.866Z,17.90
2023-05-24T19:16:17.910Z,17.80
2023-05-24T19:18:48.246Z,17.80
2023-05-24T19:21:17.331Z,17.70
2023-05-24T19:23:46.160Z,17.70
2023-05-24T19:26:18.225Z,17.70
2023-05-24T19:28:50.706Z,17.60
2023-05-24T19:31:19.989Z,17.60
2023-05-24T19:34:00.323Z,17.60
2023-05-24T19:36:31.124Z,17.70
2023-05-24T19:39:00.142Z,17.70
2023-05-24T19:41:28.749Z,17.70
2023-05-24T19:43:58.997Z,17.60
2023-05-24T19:46:28.046Z,17.60
2023-05-24T19:48:58.132Z,17.60
2023-05-24T19:51:26.831Z,17.50
2023-05-24T19:53:55.492Z,17.40
2023-05-24T19:56:24.899Z,17.40
2023-05-24T19:58:53.625Z,17.40
2023-05-24T20:01:22.381Z,17.30
2023-05-24T20:03:51.109Z,17.30
2023-05-24T20:06:21.421Z,17.30
2023-05-24T20:08:50.228Z,17.20
2023-05-24T20:11:18.856Z,17.20
2023-05-24T20:13:47.578Z,17.20
2023-05-24T20:16:17.572Z,17.20
2023-05-24T20:18:46.444Z,17.20
2023-05-24T20:21:15.767Z,17.20
2023-05-24T20:23:50.068Z,17.10
2023-05-24T20:26:19.070Z,17.20
2023-05-24T20:28:50.260Z,17.20
2023-05-24T20:31:24.332Z,17.10
2023-05-24T20:33:53.204Z,17.10
2023-05-24T20:36:22.457Z,17.00
2023-05-24T20:38:53.103Z,16.90
2023-05-24T20:41:22.091Z,16.90
2023-05-24T20:43:51.683Z,16.90
2023-05-24T20:46:20.410Z,16.90
2023-05-24T20:48:51.165Z,16.80
2023-05-24T20:51:20.129Z,16.80
2023-05-24T20:53:51.882Z,16.70
2023-05-24T20:56:31.413Z,16.70
2023-05-24T20:59:02.364Z,16.80
2023-05-24T21:01:31.045Z,16.70
2023-05-24T21:03:59.828Z,16.70
2023-05-24T21:06:28.643Z,16.70
2023-05-24T21:08:59.112Z,16.60
2023-05-24T21:11:29.710Z,16.60
2023-05-24T21:13:58.730Z,16.60
2023-05-24T21:16:27.661Z,16.50
2023-05-24T21:18:57.021Z,16.50
2023-05-24T21:21:25.692Z,16.50
2023-05-24T21:23:54.347Z,16.40
2023-05-24T21:26:23.036Z,16.40
2023-05-24T21:28:53.157Z,16.40
2023-05-24T21:31:22.025Z,16.40
2023-05-24T21:33:50.753Z,16.40
2023-05-24T21:36:19.710Z,16.30
2023-05-24T21:38:49.039Z,16.30
2023-05-24T21:41:17.619Z,16.30
2023-05-24T21:43:46.252Z,16.30
2023-05-24T21:46:16.557Z,16.30
2023-05-24T21:48:45.163Z,16.30
2023-05-24T21:51:15.748Z,16.30
2023-05-24T21:53:44.400Z,16.30
2023-05-24T21:56:12.981Z,16.20
2023-05-24T21:58:41.613Z,16.20
2023-05-24T22:01:10.263Z,16.10
2023-05-24T22:03:40.642Z,16.10
2023-05-24T22:06:09.940Z,16.00
2023-05-24T22:08:38.585Z,16.10
2023-05-24T22:11:07.409Z,16.00
2023-05-24T22:13:36.022Z,16.00
2023-05-24T22:16:04.643Z,15.90
2023-05-24T22:18:34.498Z,15.90
2023-05-24T22:21:04.549Z,15.80
2023-05-24T22:23:33.591Z,15.70
2023-05-24T22:26:02.251Z,15.70
2023-05-24T22:28:34.268Z,15.50
2023-05-24T22:31:03.705Z,15.60
2023-05-24T22:33:32.357Z,15.50
2023-05-24T22:36:02.146Z,15.50
2023-05-24T22:38:32.364Z,15.40
2023-05-24T22:41:00.950Z,15.40
2023-05-24T22:43:29.569Z,15.30
2023-05-24T22:45:58.533Z,15.30
2023-05-24T22:48:27.856Z,15.30
2023-05-24T22:50:57.751Z,15.30
2023-05-24T22:53:34.205Z,15.20
2023-05-24T22:56:02.869Z,15.10
2023-05-24T22:58:31.547Z,15.10
2023-05-24T23:01:00.189Z,15.00
2023-05-24T23:03:30.024Z,14.90
2023-05-24T23:06:04.597Z,14.80
2023-05-24T23:08:35.342Z,14.70
2023-05-24T23:11:10.708Z,14.70
2023-05-24T23:13:42.550Z,14.60
2023-05-24T23:16:12.687Z,14.50
2023-05-24T23:18:43.362Z,14.40
2023-05-24T23:21:12.102Z,14.30
2023-05-24T23:23:42.406Z,14.30
2023-05-24T23:26:11.060Z,14.20
2023-05-24T23:28:39.727Z,14.20
2023-05-24T23:31:08.643Z,14.20
2023-05-24T23:33:37.325Z,14.10
2023-05-24T23:36:06.505Z,14.10
2023-05-24T23:38:35.094Z,14.00
2023-05-24T23:41:05.211Z,14.00
2023-05-24T23:43:34.025Z,14.00
2023-05-24T23:46:02.634Z,13.90
2023-05-24T23:48:31.272Z,13.90
2023-05-24T23:50:59.920Z,13.80
2023-05-24T23:53:28.603Z,13.70
2023-05-24T23:55:57.210Z,13.70
2023-05-24T23:58:27.273Z,13.70
